createdAt,value
2023-03-17T00:01:54.697Z,113.10
2023-03-17T00:04:24.684Z,214.30
2023-03-17T00:06:54.282Z,277.00
2023-03-17T00:09:22.773Z,374.70
2023-03-17T00:11:50.733Z,258.50
2023-03-17T00:14:19.657Z,198.40
2023-03-17T00:16:52.764Z,148.60
2023-03-17T00:19:35.198Z,133.20
2023-03-17T00:22:06.065Z,122.60
2023-03-17T00:24:34.089Z,110.20
2023-03-17T00:27:02.314Z,125.20
2023-03-17T00:29:29.743Z,161.60
2023-03-17T00:31:57.679Z,166.40
2023-03-17T00:34:25.148Z,107.10
2023-03-17T00:36:53.422Z,139.70
2023-03-17T00:39:20.921Z,132.70
2023-03-17T00:41:49.072Z,122.00
2023-03-17T00:44:16.495Z,96.80
2023-03-17T00:46:44.702Z,84.00
2023-03-17T00:51:47.232Z,72.00
2023-03-17T00:54:17.261Z,48.20
2023-03-17T00:56:46.087Z,53.50
2023-03-17T00:59:33.279Z,46.70
2023-03-17T01:02:00.889Z,68.10
2023-03-17T01:04:28.723Z,68.20
2023-03-17T01:06:58.432Z,63.90
2023-03-17T01:09:27.539Z,58.90
2023-03-17T01:11:55.878Z,53.70
2023-03-17T01:14:24.590Z,58.00
2023-03-17T01:16:56.023Z,55.50
2023-03-17T01:19:23.688Z,46.50
2023-03-17T01:21:52.196Z,41.70
2023-03-17T01:24:19.933Z,46.70
2023-03-17T01:26:47.339Z,41.40
2023-03-17T01:29:14.958Z,34.30
2023-03-17T01:31:42.449Z,30.90
2023-03-17T01:34:11.154Z,35.60
2023-03-17T01:36:38.653Z,36.90
2023-03-17T01:39:07.400Z,32.90
2023-03-17T01:41:36.486Z,37.50
2023-03-17T01:44:04.687Z,33.50
2023-03-17T01:46:35.406Z,57.70
2023-03-17T01:49:19.422Z,73.50
2023-03-17T01:52:09.129Z,59.80
2023-03-17T01:54:55.653Z,53.40
2023-03-17T01:57:37.115Z,49.30
2023-03-17T02:00:13.800Z,52.10
2023-03-17T02:02:44.786Z,37.80
2023-03-17T02:05:17.963Z,34.00
2023-03-17T02:07:45.762Z,28.40
2023-03-17T02:10:17.493Z,30.60
2023-03-17T02:12:48.432Z,39.50
2023-03-17T02:15:15.952Z,33.10
2023-03-17T02:17:43.558Z,34.20
2023-03-17T02:20:17.128Z,39.70
2023-03-17T02:22:48.803Z,32.90
2023-03-17T02:25:17.393Z,36.80
2023-03-17T02:27:48.158Z,34.50
2023-03-17T02:30:19.455Z,31.80
2023-03-17T02:32:47.873Z,40.20
2023-03-17T02:35:16.571Z,36.00
2023-03-17T02:37:45.986Z,30.90
2023-03-17T02:40:14.864Z,31.20
2023-03-17T02:42:42.459Z,30.10
2023-03-17T02:45:11.582Z,32.70
2023-03-17T02:47:41.370Z,29.10
2023-03-17T02:50:17.709Z,27.70
2023-03-17T02:52:45.337Z,28.90
2023-03-17T02:55:13.245Z,24.00
2023-03-17T02:57:41.204Z,41.60
2023-03-17T03:00:11.911Z,37.70
2023-03-17T03:02:40.333Z,30.10
2023-03-17T03:05:08.828Z,34.40
2023-03-17T03:07:36.514Z,32.20
2023-03-17T03:10:05.681Z,29.20
2023-03-17T03:12:33.198Z,30.40
2023-03-17T03:15:00.736Z,25.70
2023-03-17T03:17:28.456Z,24.40
2023-03-17T03:19:56.018Z,23.80
2023-03-17T03:22:23.528Z,28.30
2023-03-17T03:24:51.153Z,24.90
2023-03-17T03:27:19.003Z,24.50
2023-03-17T03:29:47.270Z,29.00
2023-03-17T03:32:14.692Z,38.60
2023-03-17T03:34:42.676Z,33.20
2023-03-17T03:37:10.497Z,28.50
2023-03-17T03:39:39.111Z,27.30
2023-03-17T03:42:06.990Z,28.20
2023-03-17T03:44:34.538Z,30.10
2023-03-17T03:47:02.723Z,27.20
2023-03-17T03:49:30.199Z,28.50
2023-03-17T03:51:57.684Z,30.40
2023-03-17T03:54:25.298Z,29.50
2023-03-17T03:56:52.702Z,25.00
2023-03-17T03:59:21.081Z,26.80
2023-03-17T04:01:50.071Z,26.50
2023-03-17T04:04:17.714Z,25.20
2023-03-17T04:06:45.386Z,24.10
2023-03-17T04:09:13.553Z,21.70
2023-03-17T04:11:43.421Z,24.40
2023-03-17T04:14:11.001Z,25.20
2023-03-17T04:16:39.049Z,26.30
2023-03-17T04:19:07.709Z,22.70
2023-03-17T04:21:36.779Z,25.50
2023-03-17T04:24:10.035Z,30.50
2023-03-17T04:26:37.616Z,24.30
2023-03-17T04:29:16.150Z,26.30
2023-03-17T04:31:44.425Z,29.10
2023-03-17T04:34:22.074Z,24.80
2023-03-17T04:36:54.100Z,29.70
2023-03-17T04:39:21.810Z,28.00
2023-03-17T04:41:49.261Z,25.60
2023-03-17T04:44:16.744Z,26.90
2023-03-17T04:46:45.588Z,25.90
2023-03-17T04:49:15.979Z,31.40
2023-03-17T04:51:44.566Z,34.00
2023-03-17T04:54:12.318Z,29.60
2023-03-17T04:56:40.501Z,31.50
2023-03-17T04:59:08.130Z,36.30
2023-03-17T05:01:39.074Z,26.70
2023-03-17T05:04:07.995Z,29.70
2023-03-17T05:06:37.345Z,32.70
2023-03-17T05:09:05.451Z,33.00
2023-03-17T05:11:32.943Z,33.00
2023-03-17T05:14:00.392Z,29.50
2023-03-17T05:16:27.924Z,35.20
2023-03-17T05:18:55.690Z,30.30
2023-03-17T05:21:23.281Z,34.70
2023-03-17T05:23:51.005Z,33.30
2023-03-17T05:26:19.892Z,35.80
2023-03-17T05:28:48.435Z,32.00
2023-03-17T05:31:16.191Z,40.70
2023-03-17T05:33:43.670Z,35.00
2023-03-17T05:36:11.164Z,38.40
2023-03-17T05:38:38.671Z,44.50
2023-03-17T05:41:06.343Z,31.60
2023-03-17T05:43:33.878Z,33.40
2023-03-17T05:46:01.369Z,36.40
2023-03-17T05:48:29.198Z,33.30
2023-03-17T05:50:57.933Z,37.80
2023-03-17T05:53:26.486Z,34.90
2023-03-17T05:55:54.460Z,40.00
2023-03-17T05:58:23.395Z,37.30
2023-03-17T06:00:51.117Z,43.80
2023-03-17T06:03:18.697Z,41.20
2023-03-17T06:05:46.363Z,31.80
2023-03-17T06:08:15.891Z,37.80
2023-03-17T06:10:43.485Z,37.20
2023-03-17T06:13:11.777Z,36.30
2023-03-17T06:15:39.444Z,38.10
2023-03-17T06:18:07.762Z,36.50
2023-03-17T06:20:40.700Z,42.00
2023-03-17T06:23:09.918Z,42.20
2023-03-17T06:25:37.475Z,37.30
2023-03-17T06:28:06.108Z,34.40
2023-03-17T06:30:40.481Z,36.40
2023-03-17T06:33:08.867Z,39.00
2023-03-17T06:35:38.975Z,43.50
2023-03-17T06:38:07.133Z,39.20
2023-03-17T06:40:49.197Z,34.80
2023-03-17T06:43:27.946Z,37.80
2023-03-17T06:45:55.632Z,34.30
2023-03-17T06:48:23.712Z,35.60
2023-03-17T06:50:53.524Z,38.30
2023-03-17T06:53:21.731Z,33.70
2023-03-17T06:55:54.722Z,33.50
2023-03-17T06:58:22.849Z,31.90
2023-03-17T07:00:55.037Z,30.50
2023-03-17T07:03:26.506Z,30.70
2023-03-17T07:05:54.796Z,33.50
2023-03-17T07:08:25.878Z,32.00
2023-03-17T07:10:57.887Z,31.50
2023-03-17T07:13:25.830Z,33.10
2023-03-17T07:15:55.441Z,33.70
2023-03-17T07:18:23.561Z,38.60
2023-03-17T07:20:51.015Z,32.00
2023-03-17T07:23:22.985Z,44.50
2023-03-17T07:25:53.033Z,34.10
2023-03-17T07:28:21.728Z,33.70
2023-03-17T07:30:50.900Z,32.20
2023-03-17T07:33:21.222Z,28.70
2023-03-17T07:35:49.865Z,32.30
2023-03-17T07:38:19.243Z,30.40
2023-03-17T07:40:48.905Z,33.30
2023-03-17T07:43:17.713Z,30.80
2023-03-17T07:45:46.916Z,34.00
2023-03-17T07:48:14.790Z,32.10
2023-03-17T07:50:43.030Z,42.70
2023-03-17T07:53:11.288Z,33.00
2023-03-17T07:55:38.894Z,29.90
2023-03-17T07:58:13.115Z,27.10
2023-03-17T08:00:44.534Z,29.20
2023-03-17T08:03:12.474Z,29.50
2023-03-17T08:05:41.043Z,26.90
2023-03-17T08:08:10.506Z,28.90
2023-03-17T08:10:38.051Z,34.40
2023-03-17T08:13:05.588Z,32.60
2023-03-17T08:15:33.180Z,26.10
2023-03-17T08:18:01.114Z,30.50
2023-03-17T08:20:30.179Z,23.80
2023-03-17T08:22:58.113Z,25.30
2023-03-17T08:25:25.868Z,22.30
2023-03-17T08:27:53.986Z,24.00
2023-03-17T08:30:21.704Z,22.70
2023-03-17T08:32:49.281Z,21.50
2023-03-17T08:35:18.532Z,22.50
2023-03-17T08:37:47.434Z,26.10
2023-03-17T08:40:17.722Z,20.10
2023-03-17T08:42:46.662Z,20.90
2023-03-17T08:45:18.330Z,21.30
2023-03-17T08:47:47.722Z,21.00
2023-03-17T08:50:19.222Z,22.00
2023-03-17T08:52:49.582Z,21.30
2023-03-17T08:55:24.802Z,21.30
2023-03-17T08:57:58.656Z,21.50
2023-03-17T09:00:26.634Z,18.90
2023-03-17T09:02:55.442Z,18.90
2023-03-17T09:05:27.316Z,22.30
2023-03-17T09:08:02.921Z,21.40
2023-03-17T09:10:31.470Z,19.00
2023-03-17T09:13:03.829Z,17.30
2023-03-17T09:15:34.317Z,20.20
2023-03-17T09:18:03.147Z,17.00
2023-03-17T09:20:35.138Z,22.30
2023-03-17T09:23:07.908Z,21.20
2023-03-17T09:25:41.660Z,19.70
2023-03-17T09:28:12.836Z,23.00
2023-03-17T09:30:42.772Z,14.20
2023-03-17T09:33:12.922Z,17.00
2023-03-17T09:35:41.476Z,16.40
2023-03-17T09:38:10.374Z,17.70
2023-03-17T09:41:10.953Z,19.60
2023-03-17T09:44:05.561Z,18.00
2023-03-17T09:46:54.795Z,16.20
2023-03-17T09:49:28.186Z,19.40
2023-03-17T09:51:56.067Z,23.00
2023-03-17T09:54:34.812Z,14.50
2023-03-17T09:57:20.048Z,19.00
2023-03-17T10:00:08.433Z,14.40
2023-03-17T10:02:45.322Z,13.30
2023-03-17T10:05:14.909Z,16.40
2023-03-17T10:08:01.643Z,17.50
2023-03-17T10:10:48.320Z,15.70
2023-03-17T10:13:27.459Z,16.10
2023-03-17T10:16:18.687Z,15.50
2023-03-17T10:19:18.435Z,17.30
2023-03-17T10:21:58.915Z,16.70
2023-03-17T10:24:29.798Z,14.90
2023-03-17T10:27:00.820Z,19.80
2023-03-17T10:29:29.228Z,13.00
2023-03-17T10:31:58.676Z,16.20
2023-03-17T10:34:37.361Z,15.90
2023-03-17T10:37:09.352Z,16.00
2023-03-17T10:39:56.185Z,18.40
2023-03-17T10:42:33.470Z,14.70
2023-03-17T10:45:33.200Z,12.00
2023-03-17T10:48:04.325Z,14.60
2023-03-17T10:50:39.714Z,18.00
2023-03-17T10:53:18.317Z,13.60
2023-03-17T10:55:54.380Z,16.40
2023-03-17T10:58:45.352Z,16.70
2023-03-17T11:01:33.369Z,14.30
2023-03-17T11:04:02.908Z,14.30
2023-03-17T11:06:41.949Z,20.10
2023-03-17T11:09:16.721Z,16.50
2023-03-17T11:11:48.995Z,13.20
2023-03-17T11:14:27.259Z,20.40
2023-03-17T11:16:56.662Z,15.90
2023-03-17T11:19:41.988Z,14.80
2023-03-17T11:22:15.984Z,16.60
2023-03-17T11:24:49.557Z,13.50
2023-03-17T11:27:30.437Z,13.40
2023-03-17T11:30:34.705Z,15.20
2023-03-17T11:33:33.827Z,22.00
2023-03-17T11:36:27.060Z,19.00
2023-03-17T11:39:05.672Z,43.90
2023-03-17T11:41:44.787Z,13.70
2023-03-17T11:44:36.327Z,16.50
2023-03-17T11:47:36.593Z,15.50
2023-03-17T11:50:20.062Z,14.30
2023-03-17T11:52:57.990Z,12.20
2023-03-17T11:55:41.099Z,18.60
2023-03-17T11:58:17.981Z,12.70
2023-03-17T12:00:52.460Z,15.90
2023-03-17T12:03:33.174Z,17.70
2023-03-17T12:06:08.472Z,14.70
2023-03-17T12:08:45.823Z,13.10
2023-03-17T12:11:19.377Z,15.00
2023-03-17T12:13:54.049Z,13.00
2023-03-17T12:16:43.402Z,14.80
2023-03-17T12:19:19.389Z,13.20
2023-03-17T12:21:53.035Z,12.60
2023-03-17T12:24:30.518Z,14.20
2023-03-17T12:27:05.932Z,13.50
2023-03-17T12:29:49.698Z,13.90
2023-03-17T12:32:38.585Z,14.90
2023-03-17T12:35:29.257Z,19.50
2023-03-17T12:38:03.882Z,15.20
2023-03-17T12:40:43.435Z,12.90
2023-03-17T12:43:38.470Z,17.10
2023-03-17T12:46:24.674Z,12.60
2023-03-17T12:49:11.161Z,12.90
2023-03-17T12:51:59.113Z,24.50
2023-03-17T12:54:30.961Z,15.50
2023-03-17T12:57:06.569Z,12.30
2023-03-17T12:59:36.788Z,16.40
2023-03-17T13:02:21.397Z,36.70
2023-03-17T13:04:58.182Z,33.60
2023-03-17T13:07:37.840Z,17.90
2023-03-17T13:10:41.961Z,45.20
2023-03-17T13:13:18.477Z,109.60
2023-03-17T13:15:57.322Z,19.20
2023-03-17T13:18:49.312Z,17.10
2023-03-17T13:21:20.632Z,25.30
2023-03-17T13:24:15.633Z,12.20
2023-03-17T13:27:02.066Z,31.80
2023-03-17T13:29:40.857Z,28.10
2023-03-17T13:32:27.720Z,43.60
2023-03-17T13:35:00.127Z,13.20
2023-03-17T13:37:35.700Z,14.60
2023-03-17T13:40:22.702Z,16.70
2023-03-17T13:43:02.067Z,11.40
2023-03-17T13:45:41.410Z,16.80
2023-03-17T13:48:27.473Z,15.00
2023-03-17T13:51:12.672Z,39.20
2023-03-17T13:54:14.903Z,18.00
2023-03-17T13:56:44.317Z,10.90
2023-03-17T13:59:20.511Z,16.80
2023-03-17T14:02:02.177Z,29.00
2023-03-17T14:04:44.666Z,11.70
2023-03-17T14:07:19.394Z,17.90
2023-03-17T14:09:46.837Z,11.10
2023-03-17T14:12:46.449Z,19.80
2023-03-17T14:15:36.074Z,13.20
2023-03-17T14:18:15.365Z,17.60
2023-03-17T14:21:01.345Z,17.10
2023-03-17T14:23:29.949Z,45.60
2023-03-17T14:25:58.788Z,12.70
2023-03-17T14:28:29.754Z,13.20
2023-03-17T14:31:04.308Z,24.00
2023-03-17T14:33:37.790Z,34.40
2023-03-17T14:36:09.354Z,15.30
2023-03-17T14:38:39.150Z,13.30
2023-03-17T14:41:22.641Z,15.50
2023-03-17T14:43:52.383Z,18.50
2023-03-17T14:46:24.646Z,12.50
2023-03-17T14:49:04.556Z,32.00
2023-03-17T14:51:37.794Z,24.70
2023-03-17T14:54:13.951Z,16.30
2023-03-17T14:56:48.230Z,22.60
2023-03-17T14:59:29.770Z,11.50
2023-03-17T15:02:05.297Z,20.40
2023-03-17T15:04:34.202Z,14.00
2023-03-17T15:07:09.022Z,12.80
2023-03-17T15:09:40.169Z,16.50
2023-03-17T15:12:26.186Z,15.90
2023-03-17T15:15:02.916Z,12.20
2023-03-17T15:17:36.717Z,432.30
2023-03-17T15:20:12.689Z,228.10
2023-03-17T15:22:48.342Z,264.10
2023-03-17T15:25:20.730Z,77.40
2023-03-17T15:27:48.301Z,15.40
2023-03-17T15:30:17.320Z,22.00
2023-03-17T15:33:01.321Z,16.30
2023-03-17T15:35:31.484Z,18.10
2023-03-17T15:37:59.039Z,16.90
2023-03-17T15:40:26.794Z,29.60
2023-03-17T15:42:54.345Z,16.90
2023-03-17T15:45:21.964Z,32.00
2023-03-17T15:47:49.441Z,80.00
2023-03-17T15:50:33.529Z,18.80
2023-03-17T15:53:01.435Z,30.40
2023-03-17T15:55:30.707Z,15.70
2023-03-17T15:57:59.614Z,17.50
2023-03-17T16:00:30.041Z,18.60
2023-03-17T16:03:04.161Z,36.50
2023-03-17T16:05:34.479Z,22.60
2023-03-17T16:08:02.324Z,16.40
2023-03-17T16:10:32.926Z,12.40
2023-03-17T16:13:00.870Z,12.20
2023-03-17T16:15:32.265Z,13.10
2023-03-17T16:18:04.195Z,28.50
2023-03-17T16:20:39.696Z,24.60
2023-03-17T16:23:27.166Z,36.40
2023-03-17T16:25:59.322Z,34.70
2023-03-17T16:28:33.566Z,32.60
2023-03-17T16:31:04.466Z,22.40
2023-03-17T16:33:40.929Z,101.70
2023-03-17T16:36:15.962Z,47.20
2023-03-17T16:38:46.408Z,44.60
2023-03-17T16:41:27.881Z,40.30
2023-03-17T16:44:01.384Z,45.60
2023-03-17T16:46:35.031Z,30.00
2023-03-17T16:49:04.337Z,37.90
2023-03-17T16:51:31.824Z,21.40
2023-03-17T16:53:59.293Z,22.30
2023-03-17T16:56:27.562Z,21.90
2023-03-17T16:58:55.336Z,27.80
2023-03-17T17:01:28.292Z,37.20
2023-03-17T17:03:56.392Z,15.70
2023-03-17T17:06:24.937Z,20.00
2023-03-17T17:08:53.020Z,28.20
2023-03-17T17:11:21.317Z,17.90
2023-03-17T17:13:49.226Z,19.80
2023-03-17T17:16:29.255Z,16.40
2023-03-17T17:18:57.903Z,13.70
2023-03-17T17:21:26.496Z,21.90
2023-03-17T17:23:55.850Z,41.40
2023-03-17T17:26:23.405Z,19.20
2023-03-17T17:28:50.968Z,16.90
2023-03-17T17:31:18.792Z,24.70
2023-03-17T17:33:46.468Z,18.10
2023-03-17T17:36:16.681Z,25.60
2023-03-17T17:38:44.928Z,20.50
2023-03-17T17:41:14.094Z,27.00
2023-03-17T17:43:42.026Z,15.70
2023-03-17T17:46:18.925Z,17.70
2023-03-17T17:48:48.838Z,13.90
2023-03-17T17:51:17.092Z,24.60
2023-03-17T17:53:45.128Z,37.50
2023-03-17T17:56:18.262Z,79.60
2023-03-17T17:58:46.812Z,25.00
2023-03-17T18:01:19.873Z,21.80
2023-03-17T18:03:49.348Z,17.90
2023-03-17T18:06:17.924Z,18.30
2023-03-17T18:08:45.969Z,17.90
2023-03-17T18:11:14.667Z,37.90
2023-03-17T18:13:42.240Z,18.30
2023-03-17T18:16:18.363Z,20.70
2023-03-17T18:18:47.334Z,25.10
2023-03-17T18:21:15.400Z,25.90
2023-03-17T18:23:47.245Z,19.30
2023-03-17T18:26:18.058Z,16.00
2023-03-17T18:28:48.556Z,28.60
2023-03-17T18:31:29.411Z,17.40
2023-03-17T18:34:03.707Z,24.10
2023-03-17T18:36:34.614Z,19.50
2023-03-17T18:39:02.459Z,19.30
2023-03-17T18:41:32.898Z,16.20
2023-03-17T18:44:00.621Z,22.00
2023-03-17T18:46:28.392Z,16.50
2023-03-17T18:48:56.007Z,17.90
2023-03-17T18:51:23.579Z,17.00
2023-03-17T18:53:51.149Z,20.20
2023-03-17T18:56:18.691Z,21.80
2023-03-17T18:58:46.260Z,19.50
2023-03-17T19:01:15.801Z,18.90
2023-03-17T19:03:43.254Z,21.10
2023-03-17T19:06:14.035Z,19.50
2023-03-17T19:08:43.217Z,21.80
2023-03-17T19:11:13.844Z,19.20
2023-03-17T19:13:42.134Z,23.60
2023-03-17T19:16:10.559Z,19.70
2023-03-17T19:18:41.922Z,21.50
2023-03-17T19:21:11.260Z,22.20
2023-03-17T19:23:41.296Z,26.80
2023-03-17T19:26:08.872Z,19.70
2023-03-17T19:28:36.406Z,21.00
2023-03-17T19:31:04.061Z,19.60
2023-03-17T19:33:32.665Z,31.50
2023-03-17T19:36:07.446Z,23.60
2023-03-17T19:38:36.461Z,19.00
2023-03-17T19:41:04.952Z,15.30
2023-03-17T19:43:40.262Z,18.10
2023-03-17T19:46:10.911Z,18.40
2023-03-17T19:48:38.942Z,21.40
2023-03-17T19:51:06.703Z,20.40
2023-03-17T19:53:40.554Z,27.00
2023-03-17T19:56:11.568Z,18.80
2023-03-17T19:58:39.258Z,34.20
2023-03-17T20:01:07.395Z,20.40
2023-03-17T20:03:37.796Z,19.80
2023-03-17T20:06:06.373Z,21.40
2023-03-17T20:08:35.338Z,19.30
2023-03-17T20:11:04.864Z,21.30
2023-03-17T20:13:34.352Z,22.00
2023-03-17T20:16:03.671Z,20.00
2023-03-17T20:18:31.603Z,19.00
2023-03-17T20:21:00.472Z,17.50
2023-03-17T20:23:27.911Z,19.90
2023-03-17T20:25:55.332Z,22.60
2023-03-17T20:28:22.943Z,28.30
2023-03-17T20:30:53.944Z,31.80
2023-03-17T20:33:21.654Z,21.60
2023-03-17T20:35:49.146Z,18.50
2023-03-17T20:38:17.324Z,29.60
2023-03-17T20:40:44.889Z,17.80
2023-03-17T20:43:12.825Z,16.00
2023-03-17T20:45:40.494Z,20.30
2023-03-17T20:48:10.529Z,17.30
2023-03-17T20:50:38.887Z,23.50
2023-03-17T20:53:07.485Z,23.80
2023-03-17T20:55:36.279Z,25.40
2023-03-17T20:58:03.871Z,21.00
2023-03-17T21:00:33.339Z,19.30
2023-03-17T21:03:01.945Z,19.30
2023-03-17T21:05:29.479Z,18.40
2023-03-17T21:07:57.619Z,19.00
2023-03-17T21:10:25.308Z,18.40
2023-03-17T21:12:52.880Z,16.80
2023-03-17T21:15:24.104Z,17.60
2023-03-17T21:17:52.199Z,19.40
2023-03-17T21:20:21.093Z,15.40
2023-03-17T21:22:49.764Z,20.40
2023-03-17T21:25:19.201Z,20.50
2023-03-17T21:27:46.665Z,16.50
2023-03-17T21:30:15.772Z,17.00
2023-03-17T21:32:43.303Z,21.80
2023-03-17T21:35:10.846Z,22.70
2023-03-17T21:37:38.385Z,34.10
2023-03-17T21:40:06.886Z,21.10
2023-03-17T21:42:34.670Z,18.20
2023-03-17T21:45:02.463Z,17.60
2023-03-17T21:47:30.191Z,17.70
2023-03-17T21:49:57.987Z,22.40
2023-03-17T21:52:26.013Z,17.40
2023-03-17T21:54:53.533Z,20.40
2023-03-17T21:57:22.776Z,21.60
2023-03-17T21:59:50.234Z,18.10
2023-03-17T22:02:17.786Z,14.60
2023-03-17T22:04:46.893Z,19.80
2023-03-17T22:07:16.743Z,20.30
2023-03-17T22:09:45.226Z,21.70
2023-03-17T22:12:15.548Z,18.80
2023-03-17T22:14:43.139Z,20.50
2023-03-17T22:17:10.730Z,20.00
2023-03-17T22:19:40.117Z,17.20
2023-03-17T22:22:08.317Z,15.60
2023-03-17T22:24:37.694Z,16.00
2023-03-17T22:27:05.819Z,19.90
2023-03-17T22:29:33.306Z,20.80
2023-03-17T22:32:02.218Z,23.00
2023-03-17T22:34:29.862Z,17.90
2023-03-17T22:36:57.373Z,17.00
2023-03-17T22:39:25.433Z,18.50
2023-03-17T22:41:52.971Z,19.00
2023-03-17T22:44:20.627Z,18.50
2023-03-17T22:46:48.244Z,16.10
2023-03-17T22:49:16.267Z,13.60
2023-03-17T22:51:43.840Z,19.50
2023-03-17T22:54:12.140Z,19.20
2023-03-17T22:56:39.663Z,19.40
2023-03-17T22:59:07.243Z,19.00
2023-03-17T23:01:38.652Z,17.30
2023-03-17T23:04:08.903Z,24.20
2023-03-17T23:06:36.550Z,20.60
2023-03-17T23:09:05.464Z,17.40
2023-03-17T23:11:32.997Z,18.60
2023-03-17T23:14:00.581Z,18.80
2023-03-17T23:16:28.226Z,17.30
2023-03-17T23:18:56.101Z,16.20
2023-03-17T23:21:30.835Z,19.50
2023-03-17T23:23:58.720Z,16.50
2023-03-17T23:26:28.176Z,16.90
2023-03-17T23:28:55.813Z,20.00
2023-03-17T23:31:23.904Z,18.40
2023-03-17T23:33:51.520Z,20.50
2023-03-17T23:36:19.317Z,17.10
2023-03-17T23:38:48.591Z,23.20
2023-03-17T23:41:17.377Z,17.70
2023-03-17T23:43:46.913Z,15.30
2023-03-17T23:46:15.197Z,18.90
2023-03-17T23:48:43.204Z,16.40
2023-03-17T23:51:12.624Z,20.10
2023-03-17T23:53:41.802Z,18.70
2023-03-17T23:56:11.280Z,19.40
2023-03-17T23:58:43.780Z,20.70
